createdAt,value
2022-09-17T00:00:26.046Z,58.57
2022-09-17T00:03:23.293Z,58.53
2022-09-17T00:06:13.609Z,59.73
2022-09-17T00:09:11.668Z,59.63
2022-09-17T00:12:01.510Z,60.87
2022-09-17T00:14:58.838Z,60.50
2022-09-17T00:17:47.127Z,60.53
2022-09-17T00:20:47.513Z,60.97
2022-09-17T00:23:35.894Z,60.67
2022-09-17T00:26:34.163Z,59.47
2022-09-17T00:29:23.900Z,61.07
2022-09-17T00:32:21.080Z,60.27
2022-09-17T00:35:09.468Z,61.17
2022-09-17T00:38:06.994Z,61.47
2022-09-17T00:40:55.711Z,61.47
2022-09-17T00:43:57.230Z,61.03
2022-09-17T00:46:47.271Z,62.13
2022-09-17T00:49:35.684Z,61.17
2022-09-17T00:52:34.622Z,59.97
2022-09-17T00:55:26.746Z,60.93
2022-09-17T00:58:17.956Z,59.87
2022-09-17T01:01:06.878Z,59.37
2022-09-17T01:04:02.958Z,59.47
2022-09-17T01:07:00.811Z,58.47
2022-09-17T01:09:55.861Z,58.83
2022-09-17T01:12:59.060Z,56.70
2022-09-17T01:15:55.245Z,56.20
2022-09-17T01:18:56.445Z,56.00
2022-09-17T01:21:58.777Z,57.57
2022-09-17T01:24:51.090Z,59.90
2022-09-17T01:28:23.894Z,59.77
2022-09-17T01:31:36.221Z,59.50
2022-09-17T01:34:31.985Z,58.63
2022-09-17T01:37:30.889Z,58.03
2022-09-17T01:40:25.882Z,57.63
2022-09-17T01:43:22.510Z,57.37
2022-09-17T01:46:16.742Z,57.10
2022-09-17T01:49:08.722Z,57.20
2022-09-17T01:51:57.336Z,55.50
2022-09-17T01:54:56.926Z,54.27
2022-09-17T01:57:50.904Z,53.63
2022-09-17T02:00:42.544Z,51.00
2022-09-17T02:03:35.864Z,50.90
2022-09-17T02:06:30.518Z,49.40
2022-09-17T02:09:23.584Z,48.57
2022-09-17T02:12:16.226Z,48.63
2022-09-17T02:15:09.940Z,48.40
2022-09-17T02:18:06.644Z,47.80
2022-09-17T02:21:04.228Z,47.63
2022-09-17T02:24:04.424Z,46.30
2022-09-17T02:26:59.604Z,45.50
2022-09-17T02:29:47.872Z,45.17
2022-09-17T02:32:46.390Z,44.07
2022-09-17T02:35:34.810Z,44.80
2022-09-17T02:38:32.403Z,45.10
2022-09-17T02:41:27.068Z,44.37
2022-09-17T02:44:23.115Z,44.50
2022-09-17T02:47:30.272Z,44.57
2022-09-17T02:50:33.396Z,44.43
2022-09-17T02:53:38.290Z,44.40
2022-09-17T02:56:39.436Z,46.40
2022-09-17T02:59:32.856Z,46.33
2022-09-17T03:02:25.447Z,45.63
2022-09-17T03:05:15.539Z,45.63
2022-09-17T03:08:13.189Z,46.10
2022-09-17T03:11:01.536Z,46.40
2022-09-17T03:13:51.311Z,46.90
2022-09-17T03:16:39.667Z,45.80
2022-09-17T03:19:28.425Z,46.63
2022-09-17T03:22:16.661Z,46.70
2022-09-17T03:25:05.665Z,45.90
2022-09-17T03:27:53.935Z,46.23
2022-09-17T03:30:44.386Z,45.47
2022-09-17T03:33:32.684Z,46.10
2022-09-17T03:36:21.033Z,46.27
2022-09-17T03:39:09.619Z,46.43
2022-09-17T03:42:03.968Z,46.87
2022-09-17T03:44:52.181Z,47.93
2022-09-17T03:47:41.811Z,48.17
2022-09-17T03:50:30.071Z,48.70
2022-09-17T03:53:27.571Z,48.67
2022-09-17T03:56:16.396Z,49.63
2022-09-17T03:59:13.433Z,49.13
2022-09-17T04:02:01.874Z,49.93
2022-09-17T04:04:54.802Z,48.20
2022-09-17T04:07:43.116Z,48.27
2022-09-17T04:10:40.510Z,48.53
2022-09-17T04:13:28.808Z,47.80
2022-09-17T04:16:26.032Z,47.93
2022-09-17T04:19:14.489Z,47.73
2022-09-17T04:22:13.603Z,47.73
2022-09-17T04:25:01.930Z,48.40
2022-09-17T04:27:59.302Z,48.63
2022-09-17T04:30:49.044Z,48.27
2022-09-17T04:33:46.313Z,48.67
2022-09-17T04:36:34.591Z,48.93
2022-09-17T04:39:33.301Z,48.70
2022-09-17T04:42:21.576Z,49.27
2022-09-17T04:45:18.885Z,49.57
2022-09-17T04:48:07.178Z,49.83
2022-09-17T04:51:01.763Z,48.97
2022-09-17T04:53:50.040Z,49.17
2022-09-17T04:56:45.639Z,48.40
2022-09-17T04:59:33.984Z,48.30
2022-09-17T05:02:28.354Z,48.60
2022-09-17T05:05:17.852Z,49.07
2022-09-17T05:08:12.267Z,47.43
2022-09-17T05:11:00.644Z,47.23
2022-09-17T05:13:56.346Z,45.40
2022-09-17T05:16:44.688Z,44.43
2022-09-17T05:19:38.857Z,44.83
2022-09-17T05:22:27.512Z,42.30
2022-09-17T05:25:24.934Z,42.87
2022-09-17T05:28:13.352Z,42.07
2022-09-17T05:31:09.398Z,41.17
2022-09-17T05:33:59.063Z,42.87
2022-09-17T05:36:53.368Z,41.83
2022-09-17T05:39:41.707Z,41.37
2022-09-17T05:42:36.668Z,40.33
2022-09-17T05:45:25.061Z,39.00
2022-09-17T05:48:16.059Z,36.97
2022-09-17T05:51:04.485Z,36.00
2022-09-17T05:53:58.749Z,35.37
2022-09-17T05:56:47.095Z,34.50
2022-09-17T05:59:41.420Z,35.23
2022-09-17T06:02:29.771Z,36.07
2022-09-17T06:05:25.313Z,34.50
2022-09-17T06:08:13.657Z,33.13
2022-09-17T06:11:08.951Z,31.47
2022-09-17T06:13:58.030Z,30.23
2022-09-17T06:16:52.464Z,29.73
2022-09-17T06:19:40.773Z,29.57
2022-09-17T06:22:36.353Z,27.63
2022-09-17T06:25:24.948Z,27.53
2022-09-17T06:28:19.202Z,26.80
2022-09-17T06:31:09.169Z,23.77
2022-09-17T06:34:05.715Z,23.23
2022-09-17T06:36:53.963Z,23.20
2022-09-17T06:39:49.954Z,21.67
2022-09-17T06:42:38.356Z,20.47
2022-09-17T06:45:33.275Z,18.43
2022-09-17T06:48:21.996Z,16.63
2022-09-17T06:51:12.181Z,16.27
2022-09-17T06:54:00.542Z,14.53
2022-09-17T06:56:50.218Z,14.20
2022-09-17T06:59:38.543Z,14.00
2022-09-17T07:02:26.817Z,13.20
2022-09-17T07:05:15.306Z,13.37
2022-09-17T07:08:04.588Z,13.17
2022-09-17T07:11:02.389Z,12.70
2022-09-17T07:13:52.345Z,12.53
2022-09-17T07:16:40.622Z,12.77
2022-09-17T07:19:35.111Z,11.80
2022-09-17T07:22:25.723Z,11.93
2022-09-17T07:25:15.965Z,11.70
2022-09-17T07:28:13.515Z,11.67
2022-09-17T07:31:06.493Z,12.10
2022-09-17T07:33:54.997Z,10.97
2022-09-17T07:36:49.174Z,11.03
2022-09-17T07:39:37.545Z,10.37
2022-09-17T07:42:32.027Z,9.87
2022-09-17T07:45:20.324Z,9.03
2022-09-17T07:48:10.042Z,9.10
2022-09-17T07:51:07.707Z,8.97
2022-09-17T07:53:57.962Z,9.53
2022-09-17T07:56:55.406Z,9.83
2022-09-17T07:59:43.750Z,8.60
2022-09-17T08:02:41.105Z,9.27
2022-09-17T08:05:30.834Z,8.13
2022-09-17T08:08:28.102Z,7.80
2022-09-17T08:11:38.217Z,7.60
2022-09-17T08:14:29.729Z,8.00
2022-09-17T08:17:18.570Z,8.20
2022-09-17T08:20:17.261Z,8.20
2022-09-17T08:23:06.899Z,7.83
2022-09-17T08:26:06.110Z,7.63
2022-09-17T08:28:56.693Z,7.97
2022-09-17T08:31:45.066Z,6.90
2022-09-17T08:34:39.632Z,7.30
2022-09-17T08:37:29.818Z,6.87
2022-09-17T08:40:27.962Z,6.00
2022-09-17T08:43:19.695Z,6.40
2022-09-17T08:46:11.136Z,6.83
2022-09-17T08:49:08.518Z,6.57
2022-09-17T08:52:29.332Z,6.40
2022-09-17T08:55:34.112Z,6.53
2022-09-17T08:58:35.368Z,6.97
2022-09-17T09:01:43.603Z,6.50
2022-09-17T09:04:59.814Z,6.27
2022-09-17T09:07:52.806Z,6.00
2022-09-17T09:10:49.032Z,4.87
2022-09-17T09:13:43.293Z,5.60
2022-09-17T09:16:35.166Z,5.30
2022-09-17T09:19:25.622Z,5.13
2022-09-17T09:22:37.580Z,5.10
2022-09-17T09:25:28.640Z,4.90
2022-09-17T09:28:43.261Z,5.13
2022-09-17T09:31:47.426Z,4.80
2022-09-17T09:34:37.727Z,4.80
2022-09-17T09:37:36.353Z,4.43
2022-09-17T09:40:34.474Z,6.13
2022-09-17T09:43:46.358Z,4.67
2022-09-17T09:46:48.954Z,3.80
2022-09-17T09:49:50.373Z,4.03
2022-09-17T09:52:53.016Z,3.67
2022-09-17T09:56:02.251Z,4.10
2022-09-17T09:58:50.580Z,4.68
2022-09-17T10:01:46.503Z,4.13
2022-09-17T10:04:35.033Z,4.05
2022-09-17T10:07:29.566Z,3.42
2022-09-17T10:10:17.934Z,4.13
2022-09-17T10:13:15.047Z,4.95
2022-09-17T10:16:18.946Z,3.63
2022-09-17T10:19:19.737Z,3.92
2022-09-17T10:22:21.637Z,4.63
2022-09-17T10:25:25.692Z,4.20
2022-09-17T10:28:36.626Z,3.42
2022-09-17T10:31:25.291Z,3.22
2022-09-17T10:34:27.017Z,3.40
2022-09-17T10:37:35.875Z,2.95
2022-09-17T10:40:31.438Z,3.20
2022-09-17T10:43:23.934Z,2.78
2022-09-17T10:46:16.498Z,2.80
2022-09-17T10:49:11.288Z,3.20
2022-09-17T10:52:09.773Z,3.15
2022-09-17T10:55:20.168Z,3.17
2022-09-17T10:58:25.509Z,3.03
2022-09-17T11:01:26.504Z,3.10
2022-09-17T11:04:26.907Z,3.38
2022-09-17T11:07:33.448Z,3.45
2022-09-17T11:10:31.012Z,3.60
2022-09-17T11:13:27.555Z,3.60
2022-09-17T11:16:32.051Z,3.83
2022-09-17T11:19:28.637Z,3.67
2022-09-17T11:22:28.447Z,3.20
2022-09-17T11:25:29.758Z,3.30
2022-09-17T11:28:48.598Z,3.80
2022-09-17T11:31:44.651Z,3.93
2022-09-17T11:34:39.349Z,4.00
2022-09-17T11:37:34.258Z,4.17
2022-09-17T11:40:26.958Z,4.30
2022-09-17T11:43:26.342Z,4.93
2022-09-17T11:46:20.053Z,5.37
2022-09-17T11:49:16.738Z,5.40
2022-09-17T11:52:11.321Z,6.20
2022-09-17T11:55:10.859Z,6.43
2022-09-17T11:58:03.916Z,6.03
2022-09-17T12:01:00.017Z,6.57
2022-09-17T12:03:54.848Z,6.30
2022-09-17T12:06:50.585Z,6.40
2022-09-17T12:09:44.318Z,6.77
2022-09-17T12:12:49.513Z,6.30
2022-09-17T12:15:43.534Z,6.47
2022-09-17T12:18:44.294Z,6.70
2022-09-17T12:21:38.335Z,6.13
2022-09-17T12:24:28.299Z,6.83
2022-09-17T12:27:39.265Z,5.90
2022-09-17T12:30:33.771Z,6.27
2022-09-17T12:33:29.264Z,5.63
2022-09-17T12:36:36.811Z,5.83
2022-09-17T12:39:59.773Z,6.17
2022-09-17T12:43:16.005Z,6.13
2022-09-17T12:46:17.058Z,6.53
2022-09-17T12:49:22.006Z,6.47
2022-09-17T12:52:22.428Z,7.20
2022-09-17T12:55:26.954Z,7.17
2022-09-17T12:58:29.443Z,7.03
2022-09-17T13:01:25.523Z,6.67
2022-09-17T13:04:50.167Z,6.50
2022-09-17T13:08:10.212Z,6.30
2022-09-17T13:11:27.561Z,6.53
2022-09-17T13:14:23.709Z,6.83
2022-09-17T13:17:20.861Z,7.10
2022-09-17T13:20:18.611Z,7.27
2022-09-17T13:23:07.507Z,7.20
2022-09-17T13:26:05.467Z,6.90
2022-09-17T13:28:54.149Z,7.20
2022-09-17T13:31:51.080Z,6.83
2022-09-17T13:34:39.485Z,6.43
2022-09-17T13:37:34.571Z,6.80
2022-09-17T13:40:24.692Z,6.73
2022-09-17T13:43:27.100Z,6.37
2022-09-17T13:46:24.083Z,6.40
2022-09-17T13:49:17.399Z,6.50
2022-09-17T13:52:09.019Z,6.40
2022-09-17T13:55:00.490Z,6.83
2022-09-17T13:57:59.085Z,6.50
2022-09-17T14:00:54.241Z,6.53
2022-09-17T14:03:52.714Z,5.60
2022-09-17T14:06:55.968Z,5.93
2022-09-17T14:09:53.389Z,6.80
2022-09-17T14:13:21.573Z,6.17
2022-09-17T14:16:50.473Z,6.60
2022-09-17T14:19:51.562Z,6.57
2022-09-17T14:22:41.699Z,7.10
2022-09-17T14:25:42.129Z,7.97
2022-09-17T14:28:40.797Z,8.47
2022-09-17T14:31:35.157Z,8.00
2022-09-17T14:34:26.709Z,8.00
2022-09-17T14:37:19.645Z,8.37
2022-09-17T14:40:12.706Z,9.03
2022-09-17T14:43:02.907Z,9.33
2022-09-17T14:45:55.463Z,9.17
2022-09-17T14:48:43.803Z,9.10
2022-09-17T14:51:41.561Z,9.00
2022-09-17T14:54:35.830Z,9.17
2022-09-17T14:57:28.889Z,8.77
2022-09-17T15:00:21.835Z,8.63
2022-09-17T15:03:22.445Z,8.57
2022-09-17T15:06:21.737Z,8.80
2022-09-17T15:09:16.324Z,9.33
2022-09-17T15:12:06.797Z,9.50
2022-09-17T15:14:58.015Z,9.63
2022-09-17T15:17:46.743Z,9.93
2022-09-17T15:20:48.059Z,10.63
2022-09-17T15:23:37.865Z,10.27
2022-09-17T15:26:40.815Z,10.60
2022-09-17T15:29:31.839Z,9.57
2022-09-17T15:32:21.782Z,9.10
2022-09-17T15:35:28.443Z,9.10
2022-09-17T15:38:27.518Z,9.00
2022-09-17T15:41:28.589Z,9.17
2022-09-17T15:44:30.750Z,9.80
2022-09-17T15:47:50.535Z,9.60
2022-09-17T15:50:52.354Z,10.80
2022-09-17T15:53:40.695Z,10.30
2022-09-17T15:56:40.381Z,9.70
2022-09-17T15:59:30.985Z,10.33
2022-09-17T16:02:28.485Z,9.77
2022-09-17T16:05:46.453Z,10.20
2022-09-17T16:08:36.465Z,10.13
2022-09-17T16:11:32.337Z,10.50
2022-09-17T16:14:20.709Z,11.10
2022-09-17T16:17:29.113Z,11.40
2022-09-17T16:20:22.023Z,11.57
2022-09-17T16:23:11.355Z,12.53
2022-09-17T16:26:16.640Z,12.03
2022-09-17T16:29:08.055Z,12.37
2022-09-17T16:31:56.651Z,12.40
2022-09-17T16:34:45.037Z,13.47
2022-09-17T16:37:42.694Z,13.27
2022-09-17T16:40:31.441Z,14.23
2022-09-17T16:43:30.522Z,14.07
2022-09-17T16:46:19.006Z,14.60
2022-09-17T16:49:15.458Z,15.07
2022-09-17T16:52:03.786Z,15.27
2022-09-17T16:54:58.250Z,16.17
2022-09-17T16:57:46.845Z,16.63
2022-09-17T17:00:37.480Z,17.10
2022-09-17T17:03:26.078Z,17.77
2022-09-17T17:06:17.194Z,18.00
2022-09-17T17:09:05.657Z,18.33
2022-09-17T17:11:53.966Z,19.07
2022-09-17T17:14:42.305Z,19.30
2022-09-17T17:17:32.467Z,20.80
2022-09-17T17:20:21.018Z,20.30
2022-09-17T17:23:09.521Z,20.70
2022-09-17T17:25:58.110Z,21.47
2022-09-17T17:28:52.772Z,21.37
2022-09-17T17:31:41.677Z,21.60
2022-09-17T17:34:34.551Z,22.63
2022-09-17T17:37:23.547Z,22.50
2022-09-17T17:40:12.191Z,23.63
2022-09-17T17:43:00.539Z,23.47
2022-09-17T17:45:48.839Z,23.57
2022-09-17T17:48:37.461Z,24.23
2022-09-17T17:51:27.379Z,23.57
2022-09-17T17:54:15.768Z,23.07
2022-09-17T17:57:13.198Z,24.47
2022-09-17T18:00:01.608Z,23.37
2022-09-17T18:03:00.322Z,23.47
2022-09-17T18:05:48.704Z,22.90
2022-09-17T18:08:47.731Z,22.60
2022-09-17T18:11:36.965Z,23.50
2022-09-17T18:14:25.314Z,23.67
2022-09-17T18:17:13.665Z,24.20
2022-09-17T18:20:02.415Z,25.03
2022-09-17T18:22:50.824Z,25.60
2022-09-17T18:25:40.534Z,25.87
2022-09-17T18:28:30.766Z,27.20
2022-09-17T18:31:23.376Z,28.13
2022-09-17T18:34:14.010Z,28.13
2022-09-17T18:37:02.279Z,29.03
2022-09-17T18:39:58.434Z,30.17
2022-09-17T18:42:49.739Z,32.00
2022-09-17T18:45:38.206Z,32.03
2022-09-17T18:48:30.398Z,33.13
2022-09-17T18:51:21.579Z,33.53
2022-09-17T18:54:12.748Z,34.53
2022-09-17T18:57:01.253Z,35.23
2022-09-17T18:59:51.207Z,35.80
2022-09-17T19:02:39.814Z,38.03
2022-09-17T19:05:37.980Z,38.13
2022-09-17T19:08:26.342Z,38.50
2022-09-17T19:11:15.094Z,39.07
2022-09-17T19:14:03.860Z,39.40
2022-09-17T19:16:55.340Z,39.33
2022-09-17T19:19:43.807Z,40.77
2022-09-17T19:22:33.149Z,40.03
2022-09-17T19:25:22.232Z,39.70
2022-09-17T19:28:10.630Z,40.07
2022-09-17T19:30:59.345Z,40.03
2022-09-17T19:33:49.216Z,41.77
2022-09-17T19:36:37.802Z,41.77
2022-09-17T19:39:27.505Z,41.40
2022-09-17T19:42:15.934Z,40.97
2022-09-17T19:45:05.131Z,40.57
2022-09-17T19:47:56.525Z,40.53
2022-09-17T19:50:53.177Z,40.20
2022-09-17T19:53:41.715Z,40.40
2022-09-17T19:56:37.153Z,38.57
2022-09-17T19:59:25.969Z,38.57
2022-09-17T20:02:14.504Z,38.60
2022-09-17T20:05:12.161Z,38.30
2022-09-17T20:08:02.458Z,37.90
2022-09-17T20:10:53.971Z,36.47
2022-09-17T20:13:42.442Z,36.70
2022-09-17T20:16:31.285Z,38.20
2022-09-17T20:19:20.189Z,37.33
2022-09-17T20:22:17.752Z,37.77
2022-09-17T20:25:09.240Z,37.23
2022-09-17T20:27:58.266Z,37.50
2022-09-17T20:31:01.584Z,38.17
2022-09-17T20:33:52.957Z,38.60
2022-09-17T20:36:41.843Z,39.47
2022-09-17T20:39:39.163Z,38.97
2022-09-17T20:42:28.881Z,40.33
2022-09-17T20:45:26.348Z,39.77
2022-09-17T20:48:14.765Z,39.93
2022-09-17T20:51:05.328Z,39.70
2022-09-17T20:53:54.048Z,39.77
2022-09-17T20:56:48.702Z,40.40
2022-09-17T20:59:52.341Z,42.13
2022-09-17T21:02:43.895Z,42.57
2022-09-17T21:05:32.240Z,44.00
2022-09-17T21:08:27.509Z,42.90
2022-09-17T21:11:17.385Z,43.10
2022-09-17T21:14:11.989Z,43.47
2022-09-17T21:17:01.773Z,41.97
2022-09-17T21:19:56.293Z,42.20
2022-09-17T21:22:44.969Z,40.70
2022-09-17T21:25:39.293Z,40.97
2022-09-17T21:28:27.684Z,41.00
2022-09-17T21:31:26.282Z,42.07
2022-09-17T21:34:18.472Z,42.87
2022-09-17T21:37:13.070Z,43.43
2022-09-17T21:40:01.550Z,42.47
2022-09-17T21:42:56.114Z,42.37
2022-09-17T21:45:44.561Z,42.77
2022-09-17T21:48:35.022Z,43.50
2022-09-17T21:51:26.532Z,41.30
2022-09-17T21:54:17.058Z,42.10
2022-09-17T21:57:05.972Z,42.07
2022-09-17T22:00:00.175Z,40.17
2022-09-17T22:02:48.518Z,41.00
2022-09-17T22:05:42.765Z,40.30
2022-09-17T22:08:33.564Z,39.97
2022-09-17T22:11:24.090Z,39.10
2022-09-17T22:14:14.758Z,37.53
2022-09-17T22:17:03.150Z,36.60
2022-09-17T22:20:00.420Z,36.23
2022-09-17T22:22:49.014Z,36.90
2022-09-17T22:25:47.735Z,36.13
2022-09-17T22:28:36.672Z,36.73
2022-09-17T22:31:26.269Z,34.83
2022-09-17T22:34:16.806Z,34.03
2022-09-17T22:37:06.385Z,34.97
2022-09-17T22:39:55.805Z,32.80
2022-09-17T22:42:45.587Z,31.40
2022-09-17T22:45:39.867Z,30.43
2022-09-17T22:48:28.216Z,29.97
2022-09-17T22:51:16.749Z,29.73
2022-09-17T22:54:05.521Z,28.80
2022-09-17T22:56:53.902Z,27.87
2022-09-17T22:59:43.693Z,27.83
2022-09-17T23:02:38.013Z,26.53
2022-09-17T23:05:26.419Z,26.57
2022-09-17T23:08:20.736Z,26.50
2022-09-17T23:11:16.372Z,25.50
2022-09-17T23:14:06.402Z,25.77
2022-09-17T23:17:05.175Z,25.83
2022-09-17T23:19:53.550Z,26.13
2022-09-17T23:22:51.080Z,27.00
2022-09-17T23:25:39.390Z,28.57
2022-09-17T23:28:37.583Z,29.27
2022-09-17T23:31:28.508Z,30.87
2022-09-17T23:34:18.319Z,32.40
2022-09-17T23:37:12.904Z,33.60
2022-09-17T23:40:01.310Z,35.30
2022-09-17T23:42:56.028Z,37.70
2022-09-17T23:45:44.425Z,40.03
2022-09-17T23:48:32.845Z,42.37
2022-09-17T23:51:23.245Z,43.47
2022-09-17T23:54:12.423Z,45.93
2022-09-17T23:57:00.956Z,47.07
2022-09-17T23:59:49.428Z,47.57
